createdAt,value
2022-09-14T00:01:32.466Z,12.70
2022-09-14T00:04:03.245Z,12.70
2022-09-14T00:06:30.915Z,12.70
2022-09-14T00:09:01.004Z,12.70
2022-09-14T00:11:31.858Z,12.60
2022-09-14T00:14:00.885Z,12.60
2022-09-14T00:16:41.180Z,12.60
2022-09-14T00:19:17.155Z,12.50
2022-09-14T00:21:44.236Z,12.50
2022-09-14T00:24:12.030Z,12.50
2022-09-14T00:26:39.151Z,12.40
2022-09-14T00:29:06.511Z,12.50
2022-09-14T00:31:36.636Z,12.50
2022-09-14T00:34:05.134Z,12.50
2022-09-14T00:36:33.179Z,12.50
2022-09-14T00:39:00.920Z,12.50
2022-09-14T00:41:32.018Z,12.40
2022-09-14T00:44:10.392Z,12.50
2022-09-14T00:46:41.780Z,12.40
2022-09-14T00:49:15.520Z,12.40
2022-09-14T00:51:49.396Z,12.40
2022-09-14T00:54:16.627Z,12.40
2022-09-14T00:56:45.694Z,12.40
2022-09-14T00:59:26.182Z,12.40
2022-09-14T01:01:53.369Z,12.30
2022-09-14T01:04:20.436Z,12.30
2022-09-14T01:07:01.946Z,12.30
2022-09-14T01:09:35.770Z,12.40
2022-09-14T01:12:11.890Z,12.40
2022-09-14T01:15:00.815Z,12.30
2022-09-14T01:17:39.105Z,12.40
2022-09-14T01:20:47.626Z,12.40
2022-09-14T01:23:19.758Z,12.30
2022-09-14T01:25:49.317Z,12.30
2022-09-14T01:28:34.012Z,12.30
2022-09-14T01:31:07.166Z,12.30
2022-09-14T01:33:41.935Z,12.30
2022-09-14T01:36:12.620Z,12.30
2022-09-14T01:38:46.375Z,12.40
2022-09-14T01:41:17.594Z,12.40
2022-09-14T01:43:55.135Z,12.40
2022-09-14T01:46:26.928Z,12.40
2022-09-14T01:49:07.761Z,12.40
2022-09-14T01:52:27.473Z,12.40
2022-09-14T01:55:27.494Z,12.40
2022-09-14T01:58:02.428Z,12.40
2022-09-14T02:00:31.113Z,12.40
2022-09-14T02:03:06.477Z,12.40
2022-09-14T02:05:43.044Z,12.40
2022-09-14T02:08:09.923Z,12.40
2022-09-14T02:10:37.509Z,12.30
2022-09-14T02:13:04.773Z,12.40
2022-09-14T02:15:31.757Z,12.40
2022-09-14T02:17:58.864Z,12.40
2022-09-14T02:20:51.043Z,12.40
2022-09-14T02:23:18.569Z,12.40
2022-09-14T02:25:47.155Z,12.40
2022-09-14T02:28:14.580Z,12.40
2022-09-14T02:31:12.212Z,12.40
2022-09-14T02:33:52.435Z,12.40
2022-09-14T02:36:44.850Z,12.40
2022-09-14T02:39:19.960Z,12.40
2022-09-14T02:42:05.503Z,12.50
2022-09-14T02:44:57.182Z,12.40
2022-09-14T02:47:30.313Z,12.40
2022-09-14T02:49:57.277Z,12.40
2022-09-14T02:52:44.073Z,12.40
2022-09-14T02:55:15.126Z,12.40
2022-09-14T02:58:01.471Z,12.40
2022-09-14T03:00:30.331Z,12.50
2022-09-14T03:02:57.666Z,12.50
2022-09-14T03:05:25.805Z,12.40
2022-09-14T03:07:52.953Z,12.40
2022-09-14T03:10:20.231Z,12.40
2022-09-14T03:12:47.498Z,12.40
2022-09-14T03:15:14.621Z,12.40
2022-09-14T03:17:46.178Z,12.40
2022-09-14T03:20:24.803Z,12.30
2022-09-14T03:22:52.330Z,12.30
2022-09-14T03:25:20.171Z,12.20
2022-09-14T03:27:51.587Z,12.20
2022-09-14T03:30:19.702Z,12.10
2022-09-14T03:32:46.852Z,12.10
2022-09-14T03:35:14.546Z,12.00
2022-09-14T03:37:43.046Z,12.00
2022-09-14T03:40:11.930Z,12.00
2022-09-14T03:42:47.592Z,12.00
2022-09-14T03:45:15.991Z,11.90
2022-09-14T03:47:43.504Z,11.90
2022-09-14T03:50:13.191Z,11.90
2022-09-14T03:52:40.218Z,11.90
2022-09-14T03:55:09.364Z,11.90
2022-09-14T03:57:37.362Z,11.80
2022-09-14T04:00:07.038Z,11.80
2022-09-14T04:02:34.092Z,11.80
2022-09-14T04:05:01.125Z,11.70
2022-09-14T04:07:28.235Z,11.70
2022-09-14T04:09:56.243Z,11.70
2022-09-14T04:12:23.401Z,11.60
2022-09-14T04:14:50.393Z,11.60
2022-09-14T04:17:17.726Z,11.60
2022-09-14T04:19:45.010Z,11.60
2022-09-14T04:22:11.961Z,11.50
2022-09-14T04:24:38.881Z,11.50
2022-09-14T04:27:05.978Z,11.50
2022-09-14T04:29:32.945Z,11.50
2022-09-14T04:31:59.876Z,11.50
2022-09-14T04:34:26.984Z,11.50
2022-09-14T04:36:53.924Z,11.50
2022-09-14T04:39:20.931Z,11.50
2022-09-14T04:41:48.332Z,11.50
2022-09-14T04:44:15.328Z,11.50
2022-09-14T04:46:46.658Z,11.50
2022-09-14T04:49:19.324Z,11.50
2022-09-14T04:51:46.233Z,11.40
2022-09-14T04:54:15.654Z,11.40
2022-09-14T04:56:42.719Z,11.40
2022-09-14T04:59:10.350Z,11.40
2022-09-14T05:01:47.667Z,11.40
2022-09-14T05:04:14.920Z,11.40
2022-09-14T05:06:43.195Z,11.30
2022-09-14T05:09:16.652Z,11.30
2022-09-14T05:11:43.925Z,11.30
2022-09-14T05:14:14.436Z,11.40
2022-09-14T05:16:42.580Z,11.40
2022-09-14T05:19:13.496Z,11.40
2022-09-14T05:21:40.415Z,11.40
2022-09-14T05:24:16.430Z,11.40
2022-09-14T05:26:44.658Z,11.50
2022-09-14T05:29:17.678Z,11.50
2022-09-14T05:31:45.619Z,11.60
2022-09-14T05:34:13.265Z,11.50
2022-09-14T05:36:40.963Z,11.50
2022-09-14T05:39:08.715Z,11.50
2022-09-14T05:41:36.118Z,11.60
2022-09-14T05:44:03.353Z,11.60
2022-09-14T05:46:30.269Z,11.60
2022-09-14T05:48:57.471Z,11.60
2022-09-14T05:51:26.297Z,11.60
2022-09-14T05:53:56.824Z,11.60
2022-09-14T05:56:26.356Z,11.60
2022-09-14T05:58:53.745Z,11.60
2022-09-14T06:01:23.667Z,11.60
2022-09-14T06:03:53.775Z,11.70
2022-09-14T06:06:21.381Z,11.80
2022-09-14T06:08:52.513Z,11.70
2022-09-14T06:11:22.566Z,11.80
2022-09-14T06:13:50.071Z,11.80
2022-09-14T06:16:19.408Z,11.80
2022-09-14T06:18:47.381Z,11.90
2022-09-14T06:21:16.944Z,11.90
2022-09-14T06:23:44.477Z,12.00
2022-09-14T06:26:12.121Z,12.00
2022-09-14T06:28:39.650Z,12.60
2022-09-14T06:31:07.887Z,13.20
2022-09-14T06:33:35.877Z,13.10
2022-09-14T06:36:09.305Z,13.40
2022-09-14T06:38:36.448Z,13.10
2022-09-14T06:41:06.581Z,12.90
2022-09-14T06:43:36.764Z,12.60
2022-09-14T06:46:23.779Z,12.40
2022-09-14T06:48:55.594Z,12.30
2022-09-14T06:51:33.963Z,12.20
2022-09-14T06:54:02.043Z,12.20
2022-09-14T06:56:32.268Z,12.20
2022-09-14T06:59:00.000Z,12.10
2022-09-14T07:01:27.765Z,12.20
2022-09-14T07:03:55.366Z,12.20
2022-09-14T07:06:27.795Z,12.30
2022-09-14T07:08:55.834Z,12.80
2022-09-14T07:11:27.097Z,13.40
2022-09-14T07:13:55.915Z,14.00
2022-09-14T07:16:23.980Z,13.90
2022-09-14T07:18:54.202Z,13.50
2022-09-14T07:21:24.861Z,13.40
2022-09-14T07:23:52.272Z,13.40
2022-09-14T07:26:22.052Z,13.20
2022-09-14T07:28:53.755Z,13.00
2022-09-14T07:31:24.670Z,12.90
2022-09-14T07:33:56.888Z,12.70
2022-09-14T07:36:25.290Z,12.60
2022-09-14T07:38:53.578Z,12.60
2022-09-14T07:41:21.970Z,12.40
2022-09-14T07:43:51.870Z,12.40
2022-09-14T07:46:20.014Z,12.70
2022-09-14T07:48:48.143Z,12.90
2022-09-14T07:51:15.559Z,12.90
2022-09-14T07:53:43.470Z,12.70
2022-09-14T07:56:12.332Z,12.60
2022-09-14T07:58:40.714Z,12.50
2022-09-14T08:01:12.899Z,12.50
2022-09-14T08:03:47.051Z,12.70
2022-09-14T08:06:20.186Z,12.80
2022-09-14T08:08:48.571Z,13.10
2022-09-14T08:11:25.130Z,13.20
2022-09-14T08:13:55.113Z,13.40
2022-09-14T08:16:23.380Z,13.90
2022-09-14T08:18:59.215Z,13.50
2022-09-14T08:21:27.885Z,13.40
2022-09-14T08:23:55.601Z,13.90
2022-09-14T08:26:24.272Z,14.50
2022-09-14T08:28:54.057Z,14.90
2022-09-14T08:31:24.502Z,15.40
2022-09-14T08:33:53.823Z,15.40
2022-09-14T08:36:23.402Z,16.20
2022-09-14T08:38:50.731Z,15.70
2022-09-14T08:41:37.970Z,16.00
2022-09-14T08:44:43.746Z,16.10
2022-09-14T08:47:19.415Z,16.20
2022-09-14T08:50:01.601Z,16.70
2022-09-14T08:52:37.466Z,16.80
2022-09-14T08:55:36.585Z,16.90
2022-09-14T08:58:17.828Z,17.30
2022-09-14T09:01:08.205Z,17.00
2022-09-14T09:03:47.620Z,16.80
2022-09-14T09:06:25.165Z,17.10
2022-09-14T09:09:03.458Z,17.10
2022-09-14T09:11:43.931Z,17.80
2022-09-14T09:14:33.178Z,17.80
2022-09-14T09:17:04.687Z,17.20
2022-09-14T09:19:37.688Z,16.60
2022-09-14T09:22:11.987Z,16.20
2022-09-14T09:24:47.847Z,15.90
2022-09-14T09:27:16.233Z,15.40
2022-09-14T09:29:43.954Z,15.60
2022-09-14T09:32:24.066Z,15.40
2022-09-14T09:34:51.600Z,15.20
2022-09-14T09:37:22.194Z,15.30
2022-09-14T09:39:50.439Z,15.10
2022-09-14T09:42:22.983Z,15.00
2022-09-14T09:45:03.144Z,14.90
2022-09-14T09:47:32.710Z,14.80
2022-09-14T09:50:06.188Z,14.70
2022-09-14T09:52:34.784Z,14.70
2022-09-14T09:55:04.455Z,14.80
2022-09-14T09:57:36.773Z,14.80
2022-09-14T10:00:26.716Z,14.70
2022-09-14T10:02:55.079Z,14.80
2022-09-14T10:05:31.579Z,14.80
2022-09-14T10:08:01.320Z,14.70
2022-09-14T10:10:39.928Z,14.60
2022-09-14T10:13:37.806Z,14.70
2022-09-14T10:16:09.307Z,14.60
2022-09-14T10:18:36.465Z,14.70
2022-09-14T10:21:03.322Z,14.80
2022-09-14T10:23:33.540Z,15.00
2022-09-14T10:26:12.822Z,15.20
2022-09-14T10:28:45.263Z,15.20
2022-09-14T10:31:15.007Z,15.00
2022-09-14T10:33:42.546Z,14.90
2022-09-14T10:36:31.261Z,15.20
2022-09-14T10:39:14.327Z,15.30
2022-09-14T10:41:50.557Z,15.20
2022-09-14T10:44:44.094Z,15.10
2022-09-14T10:47:20.078Z,15.00
2022-09-14T10:50:12.322Z,15.00
2022-09-14T10:52:53.382Z,15.10
2022-09-14T10:55:44.934Z,15.10
2022-09-14T10:58:28.682Z,15.10
2022-09-14T11:01:09.319Z,15.30
2022-09-14T11:03:59.706Z,15.20
2022-09-14T11:06:47.821Z,15.20
2022-09-14T11:09:44.858Z,15.10
2022-09-14T11:12:21.141Z,15.00
2022-09-14T11:15:06.677Z,15.00
2022-09-14T11:17:42.522Z,15.10
2022-09-14T11:20:21.826Z,15.20
2022-09-14T11:23:03.857Z,15.30
2022-09-14T11:25:45.337Z,15.40
2022-09-14T11:28:36.814Z,15.40
2022-09-14T11:31:30.885Z,15.40
2022-09-14T11:34:25.215Z,15.50
2022-09-14T11:36:57.597Z,15.60
2022-09-14T11:39:36.970Z,15.70
2022-09-14T11:42:22.781Z,15.80
2022-09-14T11:45:05.725Z,15.80
2022-09-14T11:47:40.040Z,15.80
2022-09-14T11:50:28.318Z,15.70
2022-09-14T11:53:16.800Z,15.80
2022-09-14T11:55:51.281Z,15.70
2022-09-14T11:58:26.403Z,15.70
2022-09-14T12:01:05.114Z,15.70
2022-09-14T12:04:02.082Z,15.80
2022-09-14T12:06:31.887Z,16.00
2022-09-14T12:09:21.399Z,16.10
2022-09-14T12:11:56.821Z,15.90
2022-09-14T12:14:27.620Z,16.00
2022-09-14T12:20:29.705Z,16.20
2022-09-14T12:23:22.780Z,16.30
2022-09-14T12:26:07.505Z,16.20
2022-09-14T12:28:37.792Z,16.20
2022-09-14T12:31:04.780Z,16.00
2022-09-14T12:33:34.729Z,15.90
2022-09-14T12:36:03.219Z,15.90
2022-09-14T12:38:30.251Z,15.90
2022-09-14T12:41:10.601Z,15.90
2022-09-14T12:43:37.981Z,15.80
2022-09-14T12:46:32.076Z,15.90
2022-09-14T12:49:03.605Z,15.90
2022-09-14T12:51:36.347Z,16.00
2022-09-14T12:54:09.554Z,16.10
2022-09-14T12:56:56.132Z,16.20
2022-09-14T12:59:41.561Z,16.10
2022-09-14T13:02:35.994Z,16.30
2022-09-14T13:05:08.175Z,16.30
2022-09-14T13:07:36.994Z,16.50
2022-09-14T13:10:06.912Z,16.50
2022-09-14T13:12:41.429Z,16.70
2022-09-14T13:15:18.118Z,16.60
2022-09-14T13:18:04.049Z,16.40
2022-09-14T13:20:32.765Z,16.30
2022-09-14T13:23:00.313Z,16.20
2022-09-14T13:25:36.402Z,16.20
2022-09-14T13:28:13.673Z,16.10
2022-09-14T13:30:43.943Z,16.10
2022-09-14T13:33:17.184Z,16.00
2022-09-14T13:35:50.571Z,16.10
2022-09-14T13:38:24.934Z,16.20
2022-09-14T13:40:58.620Z,16.20
2022-09-14T13:43:25.589Z,16.20
2022-09-14T13:45:54.206Z,16.20
2022-09-14T13:48:21.993Z,16.30
2022-09-14T13:50:51.505Z,16.50
2022-09-14T13:53:48.860Z,16.40
2022-09-14T13:56:26.721Z,16.20
2022-09-14T13:59:09.466Z,16.30
2022-09-14T14:01:42.500Z,16.20
2022-09-14T14:04:30.159Z,16.40
2022-09-14T14:07:21.928Z,16.40
2022-09-14T14:09:57.684Z,16.30
2022-09-14T14:12:37.651Z,16.20
2022-09-14T14:15:27.259Z,16.10
2022-09-14T14:17:55.016Z,16.10
2022-09-14T14:20:32.811Z,15.90
2022-09-14T14:23:08.600Z,16.00
2022-09-14T14:25:45.726Z,16.10
2022-09-14T14:28:30.366Z,16.20
2022-09-14T14:31:07.759Z,16.10
2022-09-14T14:33:37.086Z,16.20
2022-09-14T14:36:10.123Z,16.00
2022-09-14T14:38:37.149Z,16.00
2022-09-14T14:41:04.896Z,15.90
2022-09-14T14:43:35.950Z,15.70
2022-09-14T14:46:03.119Z,15.70
2022-09-14T14:48:30.285Z,15.80
2022-09-14T14:50:57.396Z,15.70
2022-09-14T14:53:25.508Z,15.90
2022-09-14T14:55:53.346Z,15.90
2022-09-14T14:58:21.885Z,15.90
2022-09-14T15:00:49.843Z,15.90
2022-09-14T15:03:19.081Z,15.90
2022-09-14T15:05:47.937Z,15.80
2022-09-14T15:08:17.166Z,15.80
2022-09-14T15:10:44.347Z,15.80
2022-09-14T15:13:14.108Z,15.70
2022-09-14T15:15:43.068Z,15.70
2022-09-14T15:18:10.370Z,15.60
2022-09-14T15:20:38.089Z,15.60
2022-09-14T15:23:05.246Z,15.60
2022-09-14T15:25:32.353Z,15.50
2022-09-14T15:27:59.679Z,15.50
2022-09-14T15:30:26.635Z,15.50
2022-09-14T15:32:53.750Z,15.50
2022-09-14T15:35:20.794Z,15.50
2022-09-14T15:37:48.605Z,15.60
2022-09-14T15:40:16.244Z,15.60
2022-09-14T15:42:45.841Z,15.70
2022-09-14T15:45:13.811Z,15.70
2022-09-14T15:47:42.983Z,15.70
2022-09-14T15:50:10.531Z,15.60
2022-09-14T15:52:39.116Z,15.60
2022-09-14T15:55:08.873Z,15.60
2022-09-14T15:57:36.781Z,15.60
2022-09-14T16:00:10.272Z,15.60
2022-09-14T16:02:37.436Z,15.50
2022-09-14T16:05:04.839Z,15.50
2022-09-14T16:07:32.365Z,15.50
2022-09-14T16:09:59.366Z,15.50
2022-09-14T16:12:26.509Z,15.50
2022-09-14T16:14:53.487Z,15.50
2022-09-14T16:17:20.547Z,15.60
2022-09-14T16:19:49.371Z,15.50
2022-09-14T16:22:16.648Z,15.60
2022-09-14T16:24:43.761Z,15.50
2022-09-14T16:27:11.023Z,15.50
2022-09-14T16:29:39.438Z,15.50
2022-09-14T16:32:06.519Z,15.50
2022-09-14T16:34:33.548Z,15.50
2022-09-14T16:37:00.564Z,15.50
2022-09-14T16:39:29.901Z,15.50
2022-09-14T16:41:57.390Z,15.50
2022-09-14T16:44:26.135Z,15.50
2022-09-14T16:46:54.414Z,15.50
2022-09-14T16:49:27.005Z,15.50
2022-09-14T16:51:55.132Z,15.50
2022-09-14T16:54:24.475Z,15.50
2022-09-14T16:56:51.389Z,15.40
2022-09-14T16:59:20.575Z,15.40
2022-09-14T17:01:53.596Z,15.40
2022-09-14T17:04:22.418Z,15.40
2022-09-14T17:06:50.998Z,15.40
2022-09-14T17:09:20.911Z,15.40
2022-09-14T17:11:48.704Z,15.30
2022-09-14T17:14:21.175Z,15.30
2022-09-14T17:16:48.720Z,15.30
2022-09-14T17:19:16.044Z,15.30
2022-09-14T17:21:45.269Z,15.30
2022-09-14T17:24:14.375Z,15.30
2022-09-14T17:26:42.229Z,15.30
2022-09-14T17:29:10.270Z,15.30
2022-09-14T17:31:40.751Z,15.30
2022-09-14T17:34:10.567Z,15.20
2022-09-14T17:36:38.416Z,15.20
2022-09-14T17:39:11.292Z,15.20
2022-09-14T17:41:39.798Z,15.20
2022-09-14T17:44:08.163Z,15.20
2022-09-14T17:46:37.384Z,15.20
2022-09-14T17:49:08.130Z,15.20
2022-09-14T17:51:37.264Z,15.20
2022-09-14T17:54:04.388Z,15.10
2022-09-14T17:56:32.006Z,15.20
2022-09-14T17:59:06.017Z,15.10
2022-09-14T18:01:34.490Z,15.20
2022-09-14T18:04:05.045Z,15.10
2022-09-14T18:06:35.784Z,15.10
2022-09-14T18:09:06.539Z,15.00
2022-09-14T18:11:34.383Z,15.00
2022-09-14T18:14:02.543Z,15.00
2022-09-14T18:16:29.715Z,15.00
2022-09-14T18:18:59.549Z,15.00
2022-09-14T18:21:27.495Z,14.90
2022-09-14T18:23:55.525Z,14.80
2022-09-14T18:26:23.709Z,14.80
2022-09-14T18:28:53.568Z,14.80
2022-09-14T18:31:20.646Z,14.70
2022-09-14T18:33:59.539Z,14.70
2022-09-14T18:36:29.344Z,14.70
2022-09-14T18:38:59.963Z,14.60
2022-09-14T18:41:34.082Z,14.60
2022-09-14T18:44:02.211Z,14.60
2022-09-14T18:46:29.655Z,14.60
2022-09-14T18:48:59.354Z,14.60
2022-09-14T18:51:28.079Z,14.50
2022-09-14T18:54:00.089Z,14.60
2022-09-14T18:56:28.201Z,14.50
2022-09-14T18:58:55.649Z,14.50
2022-09-14T19:01:22.627Z,14.50
2022-09-14T19:03:50.188Z,14.40
2022-09-14T19:06:18.929Z,14.40
2022-09-14T19:08:46.494Z,14.40
2022-09-14T19:11:22.496Z,14.30
2022-09-14T19:13:54.842Z,14.30
2022-09-14T19:16:21.751Z,14.30
2022-09-14T19:18:49.656Z,14.20
2022-09-14T19:21:24.256Z,14.20
2022-09-14T19:24:08.479Z,14.10
2022-09-14T19:26:45.214Z,14.20
2022-09-14T19:29:16.052Z,14.20
2022-09-14T19:31:43.595Z,14.10
2022-09-14T19:34:11.442Z,14.10
2022-09-14T19:36:38.483Z,14.10
2022-09-14T19:39:05.557Z,14.20
2022-09-14T19:41:33.680Z,14.10
2022-09-14T19:44:02.149Z,14.10
2022-09-14T19:46:31.408Z,14.10
2022-09-14T19:48:58.990Z,14.10
2022-09-14T19:51:28.284Z,14.10
2022-09-14T19:53:56.852Z,14.10
2022-09-14T19:56:26.264Z,14.10
2022-09-14T19:58:56.114Z,14.10
2022-09-14T20:01:25.726Z,14.10
2022-09-14T20:03:53.235Z,14.10
2022-09-14T20:06:23.706Z,14.10
2022-09-14T20:09:12.783Z,14.00
2022-09-14T20:11:41.790Z,14.00
2022-09-14T20:14:12.717Z,14.00
2022-09-14T20:16:43.976Z,14.00
2022-09-14T20:19:14.161Z,13.90
2022-09-14T20:21:42.128Z,13.90
2022-09-14T20:24:17.466Z,13.90
2022-09-14T20:26:50.048Z,13.80
2022-09-14T20:29:18.662Z,13.70
2022-09-14T20:31:46.073Z,13.70
2022-09-14T20:34:14.174Z,13.60
2022-09-14T20:36:41.641Z,13.60
2022-09-14T20:39:10.538Z,13.60
2022-09-14T20:41:37.811Z,13.60
2022-09-14T20:44:04.936Z,13.50
2022-09-14T20:46:35.289Z,13.60
2022-09-14T20:49:04.412Z,13.50
2022-09-14T20:51:31.696Z,13.50
2022-09-14T20:53:58.618Z,13.50
2022-09-14T20:56:28.044Z,13.50
2022-09-14T20:58:57.102Z,13.40
2022-09-14T21:01:27.315Z,13.40
2022-09-14T21:03:54.916Z,13.40
2022-09-14T21:06:24.183Z,13.40
2022-09-14T21:08:52.040Z,13.30
2022-09-14T21:11:24.640Z,13.30
2022-09-14T21:13:53.869Z,13.30
2022-09-14T21:16:26.365Z,13.30
2022-09-14T21:18:56.164Z,13.20
2022-09-14T21:21:23.783Z,13.20
2022-09-14T21:23:51.377Z,13.20
2022-09-14T21:26:19.972Z,13.10
2022-09-14T21:28:47.847Z,13.20
2022-09-14T21:31:16.330Z,13.10
2022-09-14T21:33:45.380Z,13.10
2022-09-14T21:36:19.907Z,13.00
2022-09-14T21:38:58.199Z,13.00
2022-09-14T21:41:26.926Z,12.90
2022-09-14T21:43:54.816Z,13.00
2022-09-14T21:46:22.149Z,12.90
2022-09-14T21:48:49.587Z,12.90
2022-09-14T21:51:23.065Z,12.90
2022-09-14T21:53:59.404Z,12.80
2022-09-14T21:56:29.451Z,12.80
2022-09-14T21:58:58.665Z,12.80
2022-09-14T22:01:26.840Z,12.80
2022-09-14T22:03:55.715Z,12.80
2022-09-14T22:06:25.764Z,12.80
2022-09-14T22:08:53.085Z,12.70
2022-09-14T22:11:23.393Z,12.70
2022-09-14T22:13:55.236Z,12.70
2022-09-14T22:16:23.790Z,12.70
2022-09-14T22:18:53.970Z,12.60
2022-09-14T22:21:22.264Z,12.60
2022-09-14T22:23:54.649Z,12.60
2022-09-14T22:26:22.334Z,12.50
2022-09-14T22:28:51.013Z,12.50
2022-09-14T22:31:19.585Z,12.50
2022-09-14T22:33:46.706Z,12.50
2022-09-14T22:36:15.226Z,12.50
2022-09-14T22:38:42.611Z,12.50
2022-09-14T22:41:11.906Z,12.40
2022-09-14T22:43:40.224Z,12.40
2022-09-14T22:46:08.766Z,12.40
2022-09-14T22:48:36.802Z,12.40
2022-09-14T22:51:06.129Z,12.40
2022-09-14T22:53:34.199Z,12.40
2022-09-14T22:56:08.729Z,12.40
2022-09-14T22:58:36.586Z,12.30
2022-09-14T23:01:26.353Z,12.30
2022-09-14T23:03:59.269Z,12.20
2022-09-14T23:06:28.717Z,12.20
2022-09-14T23:08:55.909Z,12.20
2022-09-14T23:11:23.082Z,12.20
2022-09-14T23:13:50.590Z,12.20
2022-09-14T23:16:20.407Z,12.10
2022-09-14T23:18:52.298Z,12.10
2022-09-14T23:21:20.018Z,12.10
2022-09-14T23:23:59.857Z,12.10
2022-09-14T23:26:27.183Z,12.00
2022-09-14T23:29:00.033Z,12.00
2022-09-14T23:31:29.117Z,12.00
2022-09-14T23:33:58.629Z,12.00
2022-09-14T23:36:25.890Z,11.90
2022-09-14T23:38:53.249Z,11.90
2022-09-14T23:41:22.468Z,11.90
2022-09-14T23:43:49.648Z,11.90
2022-09-14T23:46:18.005Z,11.90
2022-09-14T23:48:45.225Z,11.80
2022-09-14T23:51:12.849Z,11.80
2022-09-14T23:53:40.736Z,11.80
2022-09-14T23:56:08.217Z,11.70
2022-09-14T23:58:35.732Z,11.70
